sensor_id;sensor_type;location;lat;lon;timestamp;P1;durP1;ratioP1;P2;durP2;ratioP2
2452;SDS011;63678;47.994;7.854;2024-02-14T00:00:38;6.25;;;2.90;;
2452;SDS011;63678;47.994;7.854;2024-02-14T00:03:12;8.13;;;3.00;;
2452;SDS011;63678;47.994;7.854;2024-02-14T00:05:45;4.97;;;2.40;;
2452;SDS011;63678;47.994;7.854;2024-02-14T00:08:18;7.93;;;3.30;;
2452;SDS011;63678;47.994;7.854;2024-02-14T00:10:50;6.65;;;2.50;;
2452;SDS011;63678;47.994;7.854;2024-02-14T00:13:23;10.07;;;2.60;;
2452;SDS011;63678;47.994;7.854;2024-02-14T00:15:55;6.70;;;2.80;;
2452;SDS011;63678;47.994;7.854;2024-02-14T00:18:28;6.13;;;2.60;;
2452;SDS011;63678;47.994;7.854;2024-02-14T00:21:01;6.10;;;2.60;;
2452;SDS011;63678;47.994;7.854;2024-02-14T00:23:33;6.40;;;2.90;;
2452;SDS011;63678;47.994;7.854;2024-02-14T00:26:06;7.47;;;3.20;;
2452;SDS011;63678;47.994;7.854;2024-02-14T00:28:38;6.07;;;2.70;;
2452;SDS011;63678;47.994;7.854;2024-02-14T00:31:10;5.43;;;2.90;;
2452;SDS011;63678;47.994;7.854;2024-02-14T00:33:42;9.18;;;3.30;;
2452;SDS011;63678;47.994;7.854;2024-02-14T00:36:17;9.02;;;3.08;;
2452;SDS011;63678;47.994;7.854;2024-02-14T00:38:49;6.28;;;2.90;;
2452;SDS011;63678;47.994;7.854;2024-02-14T00:41:22;6.10;;;3.13;;
2452;SDS011;63678;47.994;7.854;2024-02-14T00:43:55;5.80;;;2.70;;
2452;SDS011;63678;47.994;7.854;2024-02-14T00:46:28;6.75;;;2.78;;
2452;SDS011;63678;47.994;7.854;2024-02-14T00:49:01;5.38;;;2.40;;
2452;SDS011;63678;47.994;7.854;2024-02-14T00:51:34;6.28;;;3.03;;
2452;SDS011;63678;47.994;7.854;2024-02-14T00:54:06;7.13;;;2.85;;
2452;SDS011;63678;47.994;7.854;2024-02-14T00:56:39;7.27;;;2.33;;
2452;SDS011;63678;47.994;7.854;2024-02-14T00:59:12;5.18;;;2.30;;
2452;SDS011;63678;47.994;7.854;2024-02-14T01:01:44;5.18;;;2.28;;
2452;SDS011;63678;47.994;7.854;2024-02-14T01:04:16;6.00;;;2.70;;
2452;SDS011;63678;47.994;7.854;2024-02-14T01:06:49;5.38;;;2.70;;
2452;SDS011;63678;47.994;7.854;2024-02-14T01:09:22;7.20;;;2.37;;
2452;SDS011;63678;47.994;7.854;2024-02-14T01:11:55;6.63;;;2.45;;
2452;SDS011;63678;47.994;7.854;2024-02-14T01:14:27;5.22;;;2.30;;
2452;SDS011;63678;47.994;7.854;2024-02-14T01:16:59;7.00;;;2.20;;
2452;SDS011;63678;47.994;7.854;2024-02-14T01:19:32;6.47;;;2.42;;
2452;SDS011;63678;47.994;7.854;2024-02-14T01:22:05;5.43;;;2.20;;
2452;SDS011;63678;47.994;7.854;2024-02-14T01:24:37;6.40;;;1.95;;
2452;SDS011;63678;47.994;7.854;2024-02-14T01:27:10;4.38;;;2.17;;
2452;SDS011;63678;47.994;7.854;2024-02-14T01:29:43;8.68;;;2.33;;
2452;SDS011;63678;47.994;7.854;2024-02-14T01:32:15;5.80;;;2.10;;
2452;SDS011;63678;47.994;7.854;2024-02-14T01:34:48;5.10;;;1.80;;
2452;SDS011;63678;47.994;7.854;2024-02-14T01:37:21;4.47;;;1.60;;
2452;SDS011;63678;47.994;7.854;2024-02-14T01:39:53;8.18;;;1.83;;
2452;SDS011;63678;47.994;7.854;2024-02-14T01:42:25;6.07;;;2.30;;
2452;SDS011;63678;47.994;7.854;2024-02-14T01:44:59;6.10;;;1.90;;
2452;SDS011;63678;47.994;7.854;2024-02-14T01:47:31;4.33;;;2.20;;
2452;SDS011;63678;47.994;7.854;2024-02-14T01:50:04;5.18;;;2.10;;
2452;SDS011;63678;47.994;7.854;2024-02-14T01:52:40;5.68;;;1.90;;
2452;SDS011;63678;47.994;7.854;2024-02-14T01:55:15;6.57;;;2.30;;
2452;SDS011;63678;47.994;7.854;2024-02-14T01:57:48;3.65;;;1.70;;
2452;SDS011;63678;47.994;7.854;2024-02-14T02:00:21;6.40;;;1.80;;
2452;SDS011;63678;47.994;7.854;2024-02-14T02:02:53;6.00;;;2.05;;
2452;SDS011;63678;47.994;7.854;2024-02-14T02:05:27;4.75;;;1.77;;
2452;SDS011;63678;47.994;7.854;2024-02-14T02:08:00;6.90;;;1.77;;
2452;SDS011;63678;47.994;7.854;2024-02-14T02:10:32;6.35;;;2.08;;
2452;SDS011;63678;47.994;7.854;2024-02-14T02:13:04;8.03;;;2.30;;
2452;SDS011;63678;47.994;7.854;2024-02-14T02:15:36;4.47;;;2.03;;
2452;SDS011;63678;47.994;7.854;2024-02-14T02:18:09;6.90;;;2.13;;
2452;SDS011;63678;47.994;7.854;2024-02-14T02:20:41;8.10;;;1.95;;
2452;SDS011;63678;47.994;7.854;2024-02-14T02:23:16;5.65;;;1.90;;
2452;SDS011;63678;47.994;7.854;2024-02-14T02:25:49;6.17;;;1.93;;
2452;SDS011;63678;47.994;7.854;2024-02-14T02:28:21;5.78;;;1.77;;
2452;SDS011;63678;47.994;7.854;2024-02-14T02:30:54;8.38;;;2.28;;
2452;SDS011;63678;47.994;7.854;2024-02-14T02:33:27;7.10;;;1.90;;
2452;SDS011;63678;47.994;7.854;2024-02-14T02:35:59;6.05;;;1.63;;
2452;SDS011;63678;47.994;7.854;2024-02-14T02:38:32;6.67;;;2.30;;
2452;SDS011;63678;47.994;7.854;2024-02-14T02:41:04;6.03;;;2.50;;
2452;SDS011;63678;47.994;7.854;2024-02-14T02:43:39;5.85;;;2.15;;
2452;SDS011;63678;47.994;7.854;2024-02-14T02:46:11;8.20;;;2.53;;
2452;SDS011;63678;47.994;7.854;2024-02-14T02:48:44;5.63;;;2.28;;
2452;SDS011;63678;47.994;7.854;2024-02-14T02:51:19;5.60;;;1.87;;
2452;SDS011;63678;47.994;7.854;2024-02-14T02:53:51;6.82;;;2.20;;
2452;SDS011;63678;47.994;7.854;2024-02-14T02:56:24;7.70;;;2.58;;
2452;SDS011;63678;47.994;7.854;2024-02-14T02:58:59;7.32;;;2.30;;
2452;SDS011;63678;47.994;7.854;2024-02-14T03:01:37;7.57;;;2.53;;
2452;SDS011;63678;47.994;7.854;2024-02-14T03:04:09;5.15;;;2.38;;
2452;SDS011;63678;47.994;7.854;2024-02-14T03:06:42;6.88;;;2.08;;
2452;SDS011;63678;47.994;7.854;2024-02-14T03:09:16;5.32;;;1.88;;
2452;SDS011;63678;47.994;7.854;2024-02-14T03:11:49;5.60;;;1.80;;
2452;SDS011;63678;47.994;7.854;2024-02-14T03:14:22;5.97;;;2.13;;
2452;SDS011;63678;47.994;7.854;2024-02-14T03:16:55;4.43;;;1.90;;
2452;SDS011;63678;47.994;7.854;2024-02-14T03:19:28;5.35;;;2.00;;
2452;SDS011;63678;47.994;7.854;2024-02-14T03:22:01;7.95;;;2.53;;
2452;SDS011;63678;47.994;7.854;2024-02-14T03:24:37;6.03;;;2.13;;
2452;SDS011;63678;47.994;7.854;2024-02-14T03:27:09;5.25;;;2.15;;
2452;SDS011;63678;47.994;7.854;2024-02-14T03:29:42;5.23;;;2.20;;
2452;SDS011;63678;47.994;7.854;2024-02-14T03:32:15;5.43;;;2.00;;
2452;SDS011;63678;47.994;7.854;2024-02-14T03:34:48;4.20;;;2.10;;
2452;SDS011;63678;47.994;7.854;2024-02-14T03:37:20;4.95;;;2.17;;
2452;SDS011;63678;47.994;7.854;2024-02-14T03:39:53;5.38;;;2.10;;
2452;SDS011;63678;47.994;7.854;2024-02-14T03:42:25;9.27;;;2.72;;
2452;SDS011;63678;47.994;7.854;2024-02-14T03:44:57;5.25;;;1.92;;
2452;SDS011;63678;47.994;7.854;2024-02-14T03:47:34;5.15;;;2.08;;
2452;SDS011;63678;47.994;7.854;2024-02-14T03:50:08;6.65;;;2.10;;
2452;SDS011;63678;47.994;7.854;2024-02-14T03:52:41;3.90;;;2.20;;
2452;SDS011;63678;47.994;7.854;2024-02-14T03:55:14;4.72;;;1.90;;
2452;SDS011;63678;47.994;7.854;2024-02-14T03:57:49;4.72;;;1.63;;
2452;SDS011;63678;47.994;7.854;2024-02-14T04:00:22;5.00;;;1.70;;
2452;SDS011;63678;47.994;7.854;2024-02-14T04:02:54;8.07;;;2.13;;
2452;SDS011;63678;47.994;7.854;2024-02-14T04:05:30;5.43;;;1.90;;
2452;SDS011;63678;47.994;7.854;2024-02-14T04:08:03;4.32;;;1.80;;
2452;SDS011;63678;47.994;7.854;2024-02-14T04:10:36;4.57;;;1.92;;
2452;SDS011;63678;47.994;7.854;2024-02-14T04:13:09;5.38;;;2.20;;
2452;SDS011;63678;47.994;7.854;2024-02-14T04:15:41;6.15;;;2.03;;
2452;SDS011;63678;47.994;7.854;2024-02-14T04:18:14;6.05;;;1.80;;
2452;SDS011;63678;47.994;7.854;2024-02-14T04:20:47;5.75;;;1.77;;
2452;SDS011;63678;47.994;7.854;2024-02-14T04:23:20;6.93;;;1.80;;
2452;SDS011;63678;47.994;7.854;2024-02-14T04:25:54;3.88;;;2.03;;
2452;SDS011;63678;47.994;7.854;2024-02-14T04:28:26;3.88;;;1.80;;
2452;SDS011;63678;47.994;7.854;2024-02-14T04:30:58;5.40;;;1.98;;
2452;SDS011;63678;47.994;7.854;2024-02-14T04:33:30;4.30;;;2.00;;
2452;SDS011;63678;47.994;7.854;2024-02-14T04:36:03;4.90;;;1.88;;
2452;SDS011;63678;47.994;7.854;2024-02-14T04:38:37;5.50;;;1.73;;
2452;SDS011;63678;47.994;7.854;2024-02-14T04:41:10;4.35;;;2.15;;
2452;SDS011;63678;47.994;7.854;2024-02-14T04:43:42;4.00;;;1.70;;
2452;SDS011;63678;47.994;7.854;2024-02-14T04:46:15;5.03;;;1.95;;
2452;SDS011;63678;47.994;7.854;2024-02-14T04:48:47;5.93;;;2.20;;
2452;SDS011;63678;47.994;7.854;2024-02-14T04:51:20;4.88;;;1.75;;
2452;SDS011;63678;47.994;7.854;2024-02-14T04:53:52;4.85;;;1.80;;
2452;SDS011;63678;47.994;7.854;2024-02-14T04:56:25;5.00;;;2.00;;
2452;SDS011;63678;47.994;7.854;2024-02-14T04:58:58;7.47;;;2.10;;
2452;SDS011;63678;47.994;7.854;2024-02-14T05:01:30;4.68;;;2.00;;
2452;SDS011;63678;47.994;7.854;2024-02-14T05:04:03;4.38;;;2.00;;
2452;SDS011;63678;47.994;7.854;2024-02-14T05:06:36;4.63;;;2.25;;
2452;SDS011;63678;47.994;7.854;2024-02-14T05:09:10;4.80;;;2.28;;
2452;SDS011;63678;47.994;7.854;2024-02-14T05:11:43;4.88;;;2.10;;
2452;SDS011;63678;47.994;7.854;2024-02-14T05:14:15;3.92;;;1.98;;
2452;SDS011;63678;47.994;7.854;2024-02-14T05:16:47;5.53;;;2.20;;
2452;SDS011;63678;47.994;7.854;2024-02-14T05:19:19;4.95;;;1.70;;
2452;SDS011;63678;47.994;7.854;2024-02-14T05:21:53;4.93;;;1.88;;
2452;SDS011;63678;47.994;7.854;2024-02-14T05:24:26;7.15;;;1.80;;
2452;SDS011;63678;47.994;7.854;2024-02-14T05:27:02;4.25;;;1.95;;
2452;SDS011;63678;47.994;7.854;2024-02-14T05:29:35;6.90;;;1.70;;
2452;SDS011;63678;47.994;7.854;2024-02-14T05:32:08;4.68;;;1.83;;
2452;SDS011;63678;47.994;7.854;2024-02-14T05:34:41;5.68;;;1.83;;
2452;SDS011;63678;47.994;7.854;2024-02-14T05:37:13;5.18;;;1.80;;
2452;SDS011;63678;47.994;7.854;2024-02-14T05:39:46;5.13;;;2.30;;
2452;SDS011;63678;47.994;7.854;2024-02-14T05:42:19;5.63;;;1.85;;
2452;SDS011;63678;47.994;7.854;2024-02-14T05:44:51;5.82;;;1.90;;
2452;SDS011;63678;47.994;7.854;2024-02-14T05:47:24;4.85;;;2.28;;
2452;SDS011;63678;47.994;7.854;2024-02-14T05:49:57;5.32;;;2.30;;
2452;SDS011;63678;47.994;7.854;2024-02-14T05:52:29;4.30;;;1.95;;
2452;SDS011;63678;47.994;7.854;2024-02-14T05:55:02;4.35;;;1.77;;
2452;SDS011;63678;47.994;7.854;2024-02-14T05:57:35;8.60;;;1.80;;
2452;SDS011;63678;47.994;7.854;2024-02-14T06:00:07;4.00;;;1.95;;
2452;SDS011;63678;47.994;7.854;2024-02-14T06:02:43;3.72;;;2.15;;
2452;SDS011;63678;47.994;7.854;2024-02-14T06:05:15;5.65;;;2.10;;
2452;SDS011;63678;47.994;7.854;2024-02-14T06:07:48;5.55;;;2.35;;
2452;SDS011;63678;47.994;7.854;2024-02-14T06:10:20;4.75;;;2.17;;
2452;SDS011;63678;47.994;7.854;2024-02-14T06:12:52;5.65;;;2.17;;
2452;SDS011;63678;47.994;7.854;2024-02-14T06:15:24;5.20;;;2.10;;
2452;SDS011;63678;47.994;7.854;2024-02-14T06:17:57;4.80;;;2.03;;
2452;SDS011;63678;47.994;7.854;2024-02-14T06:20:30;6.28;;;2.30;;
2452;SDS011;63678;47.994;7.854;2024-02-14T06:23:02;6.20;;;1.90;;
2452;SDS011;63678;47.994;7.854;2024-02-14T06:25:36;7.55;;;2.40;;
2452;SDS011;63678;47.994;7.854;2024-02-14T06:28:09;5.25;;;2.10;;
2452;SDS011;63678;47.994;7.854;2024-02-14T06:30:41;4.70;;;2.05;;
2452;SDS011;63678;47.994;7.854;2024-02-14T06:33:13;5.72;;;1.85;;
2452;SDS011;63678;47.994;7.854;2024-02-14T06:35:46;4.30;;;1.90;;
2452;SDS011;63678;47.994;7.854;2024-02-14T06:38:18;5.30;;;2.20;;
2452;SDS011;63678;47.994;7.854;2024-02-14T06:40:50;4.22;;;2.20;;
2452;SDS011;63678;47.994;7.854;2024-02-14T06:43:23;5.63;;;1.77;;
2452;SDS011;63678;47.994;7.854;2024-02-14T06:45:55;4.75;;;2.10;;
2452;SDS011;63678;47.994;7.854;2024-02-14T06:48:28;5.95;;;2.50;;
2452;SDS011;63678;47.994;7.854;2024-02-14T06:51:01;8.13;;;2.10;;
2452;SDS011;63678;47.994;7.854;2024-02-14T06:53:33;5.95;;;1.88;;
2452;SDS011;63678;47.994;7.854;2024-02-14T06:56:06;5.30;;;2.30;;
2452;SDS011;63678;47.994;7.854;2024-02-14T06:58:38;4.85;;;1.80;;
2452;SDS011;63678;47.994;7.854;2024-02-14T07:01:10;4.80;;;2.30;;
2452;SDS011;63678;47.994;7.854;2024-02-14T07:03:45;4.53;;;1.90;;
2452;SDS011;63678;47.994;7.854;2024-02-14T07:06:18;5.93;;;2.30;;
2452;SDS011;63678;47.994;7.854;2024-02-14T07:08:50;4.55;;;1.90;;
2452;SDS011;63678;47.994;7.854;2024-02-14T07:11:23;4.40;;;2.25;;
2452;SDS011;63678;47.994;7.854;2024-02-14T07:13:55;4.95;;;2.30;;
2452;SDS011;63678;47.994;7.854;2024-02-14T07:16:28;5.22;;;2.15;;
2452;SDS011;63678;47.994;7.854;2024-02-14T07:19:01;4.82;;;2.13;;
2452;SDS011;63678;47.994;7.854;2024-02-14T07:21:34;6.60;;;2.75;;
2452;SDS011;63678;47.994;7.854;2024-02-14T07:24:06;8.18;;;2.55;;
2452;SDS011;63678;47.994;7.854;2024-02-14T07:26:38;6.50;;;2.25;;
2452;SDS011;63678;47.994;7.854;2024-02-14T07:29:12;5.72;;;2.58;;
2452;SDS011;63678;47.994;7.854;2024-02-14T07:31:45;6.75;;;2.10;;
2452;SDS011;63678;47.994;7.854;2024-02-14T07:34:17;5.75;;;1.90;;
2452;SDS011;63678;47.994;7.854;2024-02-14T07:36:49;7.45;;;2.45;;
2452;SDS011;63678;47.994;7.854;2024-02-14T07:39:22;6.57;;;2.20;;
2452;SDS011;63678;47.994;7.854;2024-02-14T07:41:54;6.13;;;2.50;;
2452;SDS011;63678;47.994;7.854;2024-02-14T07:44:28;6.18;;;2.47;;
2452;SDS011;63678;47.994;7.854;2024-02-14T07:47:01;4.80;;;2.20;;
2452;SDS011;63678;47.994;7.854;2024-02-14T07:49:38;4.70;;;1.90;;
2452;SDS011;63678;47.994;7.854;2024-02-14T07:52:11;6.57;;;1.95;;
2452;SDS011;63678;47.994;7.854;2024-02-14T07:54:43;5.10;;;1.88;;
2452;SDS011;63678;47.994;7.854;2024-02-14T07:57:15;5.25;;;1.90;;
2452;SDS011;63678;47.994;7.854;2024-02-14T07:59:52;5.18;;;2.28;;
2452;SDS011;63678;47.994;7.854;2024-02-14T08:02:26;5.18;;;2.00;;
2452;SDS011;63678;47.994;7.854;2024-02-14T08:04:59;5.13;;;2.10;;
2452;SDS011;63678;47.994;7.854;2024-02-14T08:07:31;5.32;;;2.05;;
2452;SDS011;63678;47.994;7.854;2024-02-14T08:10:04;6.72;;;2.38;;
2452;SDS011;63678;47.994;7.854;2024-02-14T08:12:37;6.47;;;2.40;;
2452;SDS011;63678;47.994;7.854;2024-02-14T08:15:09;5.40;;;2.75;;
2452;SDS011;63678;47.994;7.854;2024-02-14T08:17:41;6.47;;;2.10;;
2452;SDS011;63678;47.994;7.854;2024-02-14T08:20:17;6.47;;;2.30;;
2452;SDS011;63678;47.994;7.854;2024-02-14T08:22:50;4.15;;;1.95;;
2452;SDS011;63678;47.994;7.854;2024-02-14T08:25:22;6.25;;;2.30;;
2452;SDS011;63678;47.994;7.854;2024-02-14T08:27:55;6.47;;;2.58;;
2452;SDS011;63678;47.994;7.854;2024-02-14T08:30:28;6.55;;;2.67;;
2452;SDS011;63678;47.994;7.854;2024-02-14T08:33:00;5.93;;;2.47;;
2452;SDS011;63678;47.994;7.854;2024-02-14T08:35:33;7.38;;;2.70;;
2452;SDS011;63678;47.994;7.854;2024-02-14T08:38:13;9.27;;;2.42;;
2452;SDS011;63678;47.994;7.854;2024-02-14T08:40:46;6.43;;;2.25;;
2452;SDS011;63678;47.994;7.854;2024-02-14T08:43:18;5.70;;;2.40;;
2452;SDS011;63678;47.994;7.854;2024-02-14T08:45:51;7.63;;;3.03;;
2452;SDS011;63678;47.994;7.854;2024-02-14T08:48:23;6.30;;;3.35;;
2452;SDS011;63678;47.994;7.854;2024-02-14T08:50:59;7.10;;;2.58;;
2452;SDS011;63678;47.994;7.854;2024-02-14T08:53:32;7.25;;;2.28;;
2452;SDS011;63678;47.994;7.854;2024-02-14T08:56:04;9.60;;;2.88;;
2452;SDS011;63678;47.994;7.854;2024-02-14T08:58:36;6.18;;;2.08;;
2452;SDS011;63678;47.994;7.854;2024-02-14T09:01:09;7.70;;;2.50;;
2452;SDS011;63678;47.994;7.854;2024-02-14T09:03:46;7.78;;;3.35;;
2452;SDS011;63678;47.994;7.854;2024-02-14T09:06:21;8.55;;;2.38;;
2452;SDS011;63678;47.994;7.854;2024-02-14T09:08:54;5.75;;;2.33;;
2452;SDS011;63678;47.994;7.854;2024-02-14T09:11:26;6.72;;;2.22;;
2452;SDS011;63678;47.994;7.854;2024-02-14T09:13:59;7.35;;;2.50;;
2452;SDS011;63678;47.994;7.854;2024-02-14T09:16:36;4.78;;;2.28;;
2452;SDS011;63678;47.994;7.854;2024-02-14T09:19:08;4.78;;;2.17;;
2452;SDS011;63678;47.994;7.854;2024-02-14T09:21:44;5.82;;;1.90;;
2452;SDS011;63678;47.994;7.854;2024-02-14T09:24:16;6.78;;;2.55;;
2452;SDS011;63678;47.994;7.854;2024-02-14T09:26:49;5.70;;;2.10;;
2452;SDS011;63678;47.994;7.854;2024-02-14T09:29:21;6.10;;;2.10;;
2452;SDS011;63678;47.994;7.854;2024-02-14T09:31:53;4.78;;;2.17;;
2452;SDS011;63678;47.994;7.854;2024-02-14T09:34:26;6.88;;;2.28;;
2452;SDS011;63678;47.994;7.854;2024-02-14T09:36:58;6.43;;;2.00;;
2452;SDS011;63678;47.994;7.854;2024-02-14T09:39:30;8.18;;;2.15;;
2452;SDS011;63678;47.994;7.854;2024-02-14T09:42:03;7.22;;;2.25;;
2452;SDS011;63678;47.994;7.854;2024-02-14T09:44:41;5.85;;;2.03;;
2452;SDS011;63678;47.994;7.854;2024-02-14T09:47:17;8.95;;;1.98;;
2452;SDS011;63678;47.994;7.854;2024-02-14T09:49:50;5.60;;;2.15;;
2452;SDS011;63678;47.994;7.854;2024-02-14T09:52:24;5.75;;;2.30;;
2452;SDS011;63678;47.994;7.854;2024-02-14T09:54:58;5.82;;;1.90;;
2452;SDS011;63678;47.994;7.854;2024-02-14T09:57:30;6.22;;;1.90;;
2452;SDS011;63678;47.994;7.854;2024-02-14T10:00:03;5.38;;;1.90;;
2452;SDS011;63678;47.994;7.854;2024-02-14T10:02:37;9.40;;;2.00;;
2452;SDS011;63678;47.994;7.854;2024-02-14T10:05:09;4.90;;;1.80;;
2452;SDS011;63678;47.994;7.854;2024-02-14T10:07:43;4.47;;;1.80;;
2452;SDS011;63678;47.994;7.854;2024-02-14T10:10:16;6.45;;;1.70;;
2452;SDS011;63678;47.994;7.854;2024-02-14T10:12:48;9.85;;;2.00;;
2452;SDS011;63678;47.994;7.854;2024-02-14T10:15:21;9.57;;;1.83;;
2452;SDS011;63678;47.994;7.854;2024-02-14T10:17:54;3.97;;;1.77;;
2452;SDS011;63678;47.994;7.854;2024-02-14T10:20:26;4.68;;;1.70;;
2452;SDS011;63678;47.994;7.854;2024-02-14T10:23:03;5.38;;;2.22;;
2452;SDS011;63678;47.994;7.854;2024-02-14T10:25:35;3.95;;;1.50;;
2452;SDS011;63678;47.994;7.854;2024-02-14T10:28:09;6.88;;;1.95;;
2452;SDS011;63678;47.994;7.854;2024-02-14T10:30:44;6.13;;;1.60;;
2452;SDS011;63678;47.994;7.854;2024-02-14T10:33:18;6.63;;;1.92;;
2452;SDS011;63678;47.994;7.854;2024-02-14T10:35:59;3.35;;;1.50;;
2452;SDS011;63678;47.994;7.854;2024-02-14T10:38:34;7.00;;;2.10;;
2452;SDS011;63678;47.994;7.854;2024-02-14T10:41:07;4.20;;;1.70;;
2452;SDS011;63678;47.994;7.854;2024-02-14T10:43:41;3.75;;;1.55;;
2452;SDS011;63678;47.994;7.854;2024-02-14T10:46:20;4.07;;;1.73;;
2452;SDS011;63678;47.994;7.854;2024-02-14T10:48:56;4.38;;;1.10;;
2452;SDS011;63678;47.994;7.854;2024-02-14T10:51:35;4.50;;;1.60;;
2452;SDS011;63678;47.994;7.854;2024-02-14T10:54:10;8.27;;;1.58;;
2452;SDS011;63678;47.994;7.854;2024-02-14T10:56:45;3.22;;;1.50;;
2452;SDS011;63678;47.994;7.854;2024-02-14T10:59:23;3.38;;;1.20;;
2452;SDS011;63678;47.994;7.854;2024-02-14T11:01:57;5.70;;;1.55;;
2452;SDS011;63678;47.994;7.854;2024-02-14T11:04:30;3.88;;;1.23;;
2452;SDS011;63678;47.994;7.854;2024-02-14T11:07:02;4.13;;;1.50;;
2452;SDS011;63678;47.994;7.854;2024-02-14T11:09:41;3.22;;;1.17;;
2452;SDS011;63678;47.994;7.854;2024-02-14T11:12:13;6.55;;;1.58;;
2452;SDS011;63678;47.994;7.854;2024-02-14T11:14:46;4.22;;;1.65;;
2452;SDS011;63678;47.994;7.854;2024-02-14T11:17:20;3.33;;;1.40;;
2452;SDS011;63678;47.994;7.854;2024-02-14T11:19:58;5.13;;;1.70;;
2452;SDS011;63678;47.994;7.854;2024-02-14T11:22:33;4.20;;;1.70;;
2452;SDS011;63678;47.994;7.854;2024-02-14T11:25:07;4.68;;;1.45;;
2452;SDS011;63678;47.994;7.854;2024-02-14T11:27:46;4.32;;;1.70;;
2452;SDS011;63678;47.994;7.854;2024-02-14T11:30:31;3.67;;;1.40;;
2452;SDS011;63678;47.994;7.854;2024-02-14T11:33:13;3.70;;;1.70;;
2452;SDS011;63678;47.994;7.854;2024-02-14T11:35:51;5.40;;;1.65;;
2452;SDS011;63678;47.994;7.854;2024-02-14T11:38:25;4.47;;;1.48;;
2452;SDS011;63678;47.994;7.854;2024-02-14T11:40:58;3.33;;;1.38;;
2452;SDS011;63678;47.994;7.854;2024-02-14T11:43:30;4.97;;;1.70;;
2452;SDS011;63678;47.994;7.854;2024-02-14T11:46:23;3.30;;;1.40;;
2452;SDS011;63678;47.994;7.854;2024-02-14T11:48:56;6.30;;;1.92;;
2452;SDS011;63678;47.994;7.854;2024-02-14T11:51:29;5.70;;;1.83;;
2452;SDS011;63678;47.994;7.854;2024-02-14T11:54:04;4.30;;;1.80;;
2452;SDS011;63678;47.994;7.854;2024-02-14T11:56:39;4.20;;;1.88;;
2452;SDS011;63678;47.994;7.854;2024-02-14T11:59:12;8.70;;;1.50;;
2452;SDS011;63678;47.994;7.854;2024-02-14T12:01:46;3.90;;;2.08;;
2452;SDS011;63678;47.994;7.854;2024-02-14T12:04:20;5.28;;;2.50;;
2452;SDS011;63678;47.994;7.854;2024-02-14T12:06:53;5.05;;;2.17;;
2452;SDS011;63678;47.994;7.854;2024-02-14T12:09:26;4.65;;;1.80;;
2452;SDS011;63678;47.994;7.854;2024-02-14T12:12:01;4.97;;;2.15;;
2452;SDS011;63678;47.994;7.854;2024-02-14T12:14:34;4.78;;;2.25;;
2452;SDS011;63678;47.994;7.854;2024-02-14T12:17:07;6.38;;;2.20;;
2452;SDS011;63678;47.994;7.854;2024-02-14T12:19:40;4.18;;;1.90;;
2452;SDS011;63678;47.994;7.854;2024-02-14T12:22:13;4.68;;;1.80;;
2452;SDS011;63678;47.994;7.854;2024-02-14T12:24:49;5.63;;;2.35;;
2452;SDS011;63678;47.994;7.854;2024-02-14T12:27:31;4.32;;;2.28;;
2452;SDS011;63678;47.994;7.854;2024-02-14T12:30:06;4.00;;;1.97;;
2452;SDS011;63678;47.994;7.854;2024-02-14T12:32:39;3.92;;;1.60;;
2452;SDS011;63678;47.994;7.854;2024-02-14T12:35:12;3.50;;;1.55;;
2452;SDS011;63678;47.994;7.854;2024-02-14T12:37:45;4.55;;;1.77;;
2452;SDS011;63678;47.994;7.854;2024-02-14T12:40:17;4.68;;;1.70;;
2452;SDS011;63678;47.994;7.854;2024-02-14T12:42:49;3.67;;;1.87;;
2452;SDS011;63678;47.994;7.854;2024-02-14T12:45:22;4.30;;;1.50;;
2452;SDS011;63678;47.994;7.854;2024-02-14T12:47:55;4.10;;;1.63;;
2452;SDS011;63678;47.994;7.854;2024-02-14T12:50:29;3.58;;;2.05;;
2452;SDS011;63678;47.994;7.854;2024-02-14T12:53:06;4.07;;;1.80;;
2452;SDS011;63678;47.994;7.854;2024-02-14T12:55:39;3.63;;;1.80;;
2452;SDS011;63678;47.994;7.854;2024-02-14T12:58:12;4.53;;;1.80;;
2452;SDS011;63678;47.994;7.854;2024-02-14T13:00:45;7.22;;;1.98;;
2452;SDS011;63678;47.994;7.854;2024-02-14T13:03:18;4.43;;;1.70;;
2452;SDS011;63678;47.994;7.854;2024-02-14T13:05:51;3.47;;;1.60;;
2452;SDS011;63678;47.994;7.854;2024-02-14T13:08:25;5.07;;;1.70;;
2452;SDS011;63678;47.994;7.854;2024-02-14T13:10:58;4.63;;;1.77;;
2452;SDS011;63678;47.994;7.854;2024-02-14T13:13:31;4.95;;;1.50;;
2452;SDS011;63678;47.994;7.854;2024-02-14T13:16:04;5.15;;;1.90;;
2452;SDS011;63678;47.994;7.854;2024-02-14T13:18:38;4.05;;;1.63;;
2452;SDS011;63678;47.994;7.854;2024-02-14T13:21:12;4.57;;;1.40;;
2452;SDS011;63678;47.994;7.854;2024-02-14T13:23:45;4.65;;;1.90;;
2452;SDS011;63678;47.994;7.854;2024-02-14T13:26:17;3.65;;;1.75;;
2452;SDS011;63678;47.994;7.854;2024-02-14T13:28:50;4.00;;;1.75;;
2452;SDS011;63678;47.994;7.854;2024-02-14T13:31:22;3.97;;;1.90;;
2452;SDS011;63678;47.994;7.854;2024-02-14T13:33:54;8.98;;;2.28;;
2452;SDS011;63678;47.994;7.854;2024-02-14T13:36:27;5.30;;;1.65;;
2452;SDS011;63678;47.994;7.854;2024-02-14T13:39:00;4.60;;;2.13;;
2452;SDS011;63678;47.994;7.854;2024-02-14T13:41:32;5.55;;;1.98;;
2452;SDS011;63678;47.994;7.854;2024-02-14T13:44:08;5.15;;;1.70;;
2452;SDS011;63678;47.994;7.854;2024-02-14T13:46:45;3.58;;;1.70;;
2452;SDS011;63678;47.994;7.854;2024-02-14T13:49:18;4.82;;;1.60;;
2452;SDS011;63678;47.994;7.854;2024-02-14T13:51:53;4.20;;;1.80;;
2452;SDS011;63678;47.994;7.854;2024-02-14T13:54:26;4.80;;;1.80;;
2452;SDS011;63678;47.994;7.854;2024-02-14T13:56:58;4.65;;;2.60;;
2452;SDS011;63678;47.994;7.854;2024-02-14T13:59:31;4.00;;;1.95;;
2452;SDS011;63678;47.994;7.854;2024-02-14T14:02:04;3.70;;;1.80;;
2452;SDS011;63678;47.994;7.854;2024-02-14T14:04:37;6.10;;;1.70;;
2452;SDS011;63678;47.994;7.854;2024-02-14T14:07:09;4.38;;;1.77;;
2452;SDS011;63678;47.994;7.854;2024-02-14T14:09:42;3.97;;;1.80;;
2452;SDS011;63678;47.994;7.854;2024-02-14T14:12:14;4.72;;;1.83;;
2452;SDS011;63678;47.994;7.854;2024-02-14T14:14:47;4.47;;;1.77;;
2452;SDS011;63678;47.994;7.854;2024-02-14T14:17:20;4.82;;;1.73;;
2452;SDS011;63678;47.994;7.854;2024-02-14T14:19:53;3.80;;;2.13;;
2452;SDS011;63678;47.994;7.854;2024-02-14T14:22:26;3.22;;;1.52;;
2452;SDS011;63678;47.994;7.854;2024-02-14T14:25:00;4.40;;;1.92;;
2452;SDS011;63678;47.994;7.854;2024-02-14T14:27:34;6.40;;;2.28;;
2452;SDS011;63678;47.994;7.854;2024-02-14T14:30:07;3.88;;;1.52;;
2452;SDS011;63678;47.994;7.854;2024-02-14T14:32:40;5.05;;;2.17;;
2452;SDS011;63678;47.994;7.854;2024-02-14T14:35:13;3.47;;;1.70;;
2452;SDS011;63678;47.994;7.854;2024-02-14T14:37:46;3.75;;;1.77;;
2452;SDS011;63678;47.994;7.854;2024-02-14T14:40:18;5.38;;;1.80;;
2452;SDS011;63678;47.994;7.854;2024-02-14T14:42:50;4.60;;;1.60;;
2452;SDS011;63678;47.994;7.854;2024-02-14T14:45:25;4.07;;;1.70;;
2452;SDS011;63678;47.994;7.854;2024-02-14T14:47:59;5.28;;;1.95;;
2452;SDS011;63678;47.994;7.854;2024-02-14T14:50:35;4.28;;;1.75;;
2452;SDS011;63678;47.994;7.854;2024-02-14T14:53:09;4.45;;;2.10;;
2452;SDS011;63678;47.994;7.854;2024-02-14T14:55:51;5.40;;;1.70;;
2452;SDS011;63678;47.994;7.854;2024-02-14T14:58:28;4.82;;;1.88;;
2452;SDS011;63678;47.994;7.854;2024-02-14T15:01:05;5.85;;;2.83;;
2452;SDS011;63678;47.994;7.854;2024-02-14T15:03:38;4.13;;;1.85;;
2452;SDS011;63678;47.994;7.854;2024-02-14T15:06:10;3.88;;;1.70;;
2452;SDS011;63678;47.994;7.854;2024-02-14T15:08:43;3.92;;;1.75;;
2452;SDS011;63678;47.994;7.854;2024-02-14T15:11:15;6.55;;;1.52;;
2452;SDS011;63678;47.994;7.854;2024-02-14T15:13:49;3.88;;;1.60;;
2452;SDS011;63678;47.994;7.854;2024-02-14T15:16:22;6.88;;;2.17;;
2452;SDS011;63678;47.994;7.854;2024-02-14T15:18:55;4.22;;;1.67;;
2452;SDS011;63678;47.994;7.854;2024-02-14T15:21:28;3.70;;;1.40;;
2452;SDS011;63678;47.994;7.854;2024-02-14T15:24:01;5.05;;;2.00;;
2452;SDS011;63678;47.994;7.854;2024-02-14T15:26:35;3.38;;;1.50;;
2452;SDS011;63678;47.994;7.854;2024-02-14T15:29:21;4.43;;;1.63;;
2452;SDS011;63678;47.994;7.854;2024-02-14T15:32:12;4.68;;;1.48;;
2452;SDS011;63678;47.994;7.854;2024-02-14T15:35:23;4.00;;;1.65;;
2452;SDS011;63678;47.994;7.854;2024-02-14T15:37:56;3.80;;;1.80;;